Saturday, February 06, 2016
13:40 UTC
  |  Log In   |  Register Free
Airport Search:

Skyway Estates Airport
(60G)

Skyway Estates Airport Diagram
No Airport Diagram Available

FAA data valid effective Dec 10 2015 - Feb 4 2016 (unless otherwise noted).

 
 
 
 
 
 
 
 
 
 
 
 
 
 
Current Aviation Weather for 60G

Weather Summary


Current weather conditions are not available for 60G - The nearest NOAA weather station is at FPK, (7.1 nm SW from 60G)

The most recent METAR observation for 60G was updated at: 12:55 UTC
METAR for 60G is not available. Closest METAR is for KFPK 7.1 nm NE
KFPK  (7.1 nm NE)   (most recent observation was updated at 61:31 UTC)
061315Z AUTO 21006KT 4SM BR SCT060 BKN075 M04/M06 A3024 RMK AO2 T10411056

KTEW  (10.1 nm NW)   (most recent observation was updated at 61:31 UTC)
061313Z AUTO 23004KT 5SM BR SCT080 M03/M05 A3025 RMK AO2 T10351051

TAF for 60G is not available.
KLAN  (12.1 nm SW)   (most recent observation was updatred at 61:12 UTC)
061127Z 0612/0712 22007KT P6SM OVC070 FM061900 23012KT P6SM OVC025 FM070400 21009KT P6SM OVC050 FM071000 21010KT P6SM OVC100


KJXN  (21.2 nm NW)   (most recent observation was updatred at 61:22 UTC)
AMD 061223Z 0612/0712 24006KT 5SM BR OVC070 FM061600 21008KT P6SM SCT070 BKN250 FM062200 23010KT P6SM OVC035 FM071000 20010KT P6SM OVC100


KBTL  (31.3 nm NE)   (most recent observation was updatred at 61:12 UTC)
061127Z 0612/0712 22005KT 5SM BR BKN070 FM061500 21008KT P6SM SCT070 BKN250 FM061800 23010KT P6SM OVC030 FM070430 20006KT P6SM OVC050 FM070800 20010KT P6SM OVC100
GlobalAir.com is loading additional information.
 Current Weather at FPK
25.0 F° (-3.7 C°)

Southwest winds at 5.8 mph
Pressure:
30.25 in
Humidity:
89%
Wind:
Southwest at 5.8 mph
Dew Point:
22.6 F° (-5.2 C°)
Visibility:
5.00 mi
60G NOAA Radar




Find All Airport Services Find A Hotel Find A Rental Car Find A Golf Course Find A Restaurant $100 Hamburger



Airport Weather Forecast for 60G

Translated METAR for KFPK (1315 UTC)
METAR:
KFPK 061315Z AUTO 21006KT 4SM BR SCT060 BKN075 M04/M06 A3024 RMK AO2 T10411056
Conditions at:
KFPK (Fitch H Beach, MI) observed 1315 UTC 06 February 2016
Temperature:
-4°C (24.8°F)
Dewpoint:
-6°C (21.2°F) [RH = 86]
Pressure:
30.24 inches Hg (1024 mb)
Winds:
from the SSW (210 degrees) at 6.9 mph (6 knots: 3.1 m/s)
Visibility:
4 mile(s)
Ceiling:
7,500 feet AGL
Clouds:
Scattered Clouds at 6,000 feet AGL
Broken Cloud Cover at 7,500 feet AGL
Remarks:
site is un-manned
site is automated and HAS a precipitation sensor

Translated TAF for KLAN (Capital Region Intl, MI) (1127 UTC)
TAF text:
KLAN 061127Z 0612/0712 22007KT P6SM OVC070
Forecast period:
Saturday Feb 06 2016 12:00 UTC - Sunday Feb 07 2016 12:00 UTC
Forecast type:
FROM: standard forecast or significant change
Winds:
from the SW (220 degrees) at 8.1 mph (7 knots: 3.6 m/s)
Visibility:
6 or more mile(s) (9.7+ km)
Ceiling:
7,000 feet AGL
Clouds:
Overcast Skies at 7,000 feet AGL
Weather:
no significant weather observed at this time
TAF text:
FM061900 23012KT P6SM OVC025
Forecast period:
Saturday Feb 06 2016 19:00 UTC - Sunday Feb 07 2016 04:00 UTC
Forecast type:
FROM: standard forecast or significant change
Winds:
from the SW (230 degrees) at 13.8 mph (12 knots: 6.2 m/s)
Visibility:
6 or more mile(s) (9.7+ km)
Ceiling:
2,500 feet AGL
Clouds:
Overcast Skies at 2,500 feet AGL
Weather:
no significant weather observed at this time
TAF text:
FM070400 21009KT P6SM OVC050
Forecast period:
Sunday Feb 07 2016 04:00 UTC - Sunday Feb 07 2016 10:00 UTC
Forecast type:
FROM: standard forecast or significant change
Winds:
from the SSW (210 degrees) at 10.4 mph (9 knots: 4.6 m/s)
Visibility:
6 or more mile(s) (9.7+ km)
Ceiling:
5,000 feet AGL
Clouds:
Overcast Skies at 5,000 feet AGL
Weather:
no significant weather observed at this time
TAF text:
FM071000 21010KT P6SM OVC100
Forecast period:
Sunday Feb 07 2016 10:00 UTC - Sunday Feb 07 2016 12:00 UTC
Forecast type:
FROM: standard forecast or significant change
Winds:
from the SSW (210 degrees) at 11.5 mph (10 knots: 5.1 m/s)
Visibility:
6 or more mile(s) (9.7+ km)
Ceiling:
10,000 feet AGL
Clouds:
Overcast Skies at 10,000 feet AGL
Weather:
no significant weather observed at this time
FBO's on the Field
FBO Company Facility Photos Services Transportation Aviation Fuel Prices: Prices include tax
Catering Weather Repair Courtesy Rental Type 100LL JetA JetA+ MOGAS 8087
 
Add another FBO Facility Photos Catering Weather Repair Courtesy Rental Type 100LL JetA JetA+ MOGAS 8087
Services Transportation Aviation Fuel Prices: Prices include tax
There are no FBO's currently reporting fuel at 60G. List your FBO now


model-print
model-print
model-print
model-print